sensor_id;sensor_type;location;lat;lon;timestamp;pressure;altitude;pressure_sealevel;temperature;humidity
64243;BME280;50573;51.512;5.386;2023-02-02T00:10:01;101921.22;;;8.42;92.60
64243;BME280;50573;51.512;5.386;2023-02-02T00:20:06;101906.47;;;8.50;91.37
64243;BME280;50573;51.512;5.386;2023-02-02T00:30:09;101915.75;;;8.60;90.46
64243;BME280;50573;51.512;5.386;2023-02-02T00:40:14;101932.44;;;8.62;89.95
64243;BME280;50573;51.512;5.386;2023-02-02T00:50:17;101941.75;;;8.68;89.61
64243;BME280;50573;51.512;5.386;2023-02-02T01:00:23;101931.28;;;8.70;89.30
64243;BME280;50573;51.512;5.386;2023-02-02T01:10:27;101935.91;;;8.73;89.19
64243;BME280;50573;51.512;5.386;2023-02-02T01:20:31;101939.81;;;8.75;88.98
64243;BME280;50573;51.512;5.386;2023-02-02T01:30:34;101929.34;;;8.67;89.50
64243;BME280;50573;51.512;5.386;2023-02-02T01:40:44;101933.19;;;8.69;89.27
64243;BME280;50573;51.512;5.386;2023-02-02T01:50:46;101941.34;;;8.66;89.41
64243;BME280;50573;51.512;5.386;2023-02-02T02:00:52;101929.72;;;8.65;89.05
64243;BME280;50573;51.512;5.386;2023-02-02T02:10:56;101930.53;;;8.59;89.63
64243;BME280;50573;51.512;5.386;2023-02-02T02:31:59;101927.03;;;8.58;89.58
64243;BME280;50573;51.512;5.386;2023-02-02T02:42:06;101936.75;;;8.52;89.84
64243;BME280;50573;51.512;5.386;2023-02-02T02:52:12;101945.28;;;8.54;90.23
64243;BME280;50573;51.512;5.386;2023-02-02T03:02:20;101951.09;;;8.53;90.41
64243;BME280;50573;51.512;5.386;2023-02-02T03:12:27;101941.03;;;8.43;90.98
64243;BME280;50573;51.512;5.386;2023-02-02T03:22:30;101945.28;;;8.40;91.14
64243;BME280;50573;51.512;5.386;2023-02-02T03:32:35;101930.91;;;8.43;91.25
64243;BME280;50573;51.512;5.386;2023-02-02T03:42:38;101915.81;;;8.38;91.60
64243;BME280;50573;51.512;5.386;2023-02-02T03:52:42;101947.59;;;8.45;91.44
64243;BME280;50573;51.512;5.386;2023-02-02T04:02:45;101959.63;;;8.40;91.98
64243;BME280;50573;51.512;5.386;2023-02-02T04:12:50;101962.34;;;8.48;91.68
64243;BME280;50573;51.512;5.386;2023-02-02T04:22:53;101954.19;;;8.40;91.69
64243;BME280;50573;51.512;5.386;2023-02-02T04:32:57;101973.19;;;8.51;91.67
64243;BME280;50573;51.512;5.386;2023-02-02T04:43:00;101972.03;;;8.41;91.78
64243;BME280;50573;51.512;5.386;2023-02-02T04:53:05;101953.81;;;8.46;91.57
64243;BME280;50573;51.512;5.386;2023-02-02T05:03:08;101957.28;;;8.50;91.37
64243;BME280;50573;51.512;5.386;2023-02-02T05:13:12;101963.88;;;8.41;91.86
64243;BME280;50573;51.512;5.386;2023-02-02T05:23:15;101984.47;;;8.43;92.04
64243;BME280;50573;51.512;5.386;2023-02-02T05:33:19;101988.72;;;8.51;91.83
64243;BME280;50573;51.512;5.386;2023-02-02T05:43:23;101991.06;;;8.56;91.90
64243;BME280;50573;51.512;5.386;2023-02-02T05:53:28;101995.69;;;8.52;91.87
64243;BME280;50573;51.512;5.386;2023-02-02T06:03:30;101996.84;;;8.58;91.70
64243;BME280;50573;51.512;5.386;2023-02-02T06:13:35;101989.47;;;8.51;91.98
64243;BME280;50573;51.512;5.386;2023-02-02T06:23:38;101992.59;;;8.53;92.19
64243;BME280;50573;51.512;5.386;2023-02-02T06:33:50;102000.38;;;8.48;92.15
64243;BME280;50573;51.512;5.386;2023-02-02T06:43:54;102003.84;;;8.44;92.72
64243;BME280;50573;51.512;5.386;2023-02-02T06:53:58;102029.44;;;8.36;92.93
64243;BME280;50573;51.512;5.386;2023-02-02T07:04:01;102042.66;;;8.38;93.28
64243;BME280;50573;51.512;5.386;2023-02-02T07:14:05;102054.66;;;8.33;93.57
64243;BME280;50573;51.512;5.386;2023-02-02T07:24:09;102045.75;;;8.33;94.08
64243;BME280;50573;51.512;5.386;2023-02-02T07:34:13;102036.81;;;8.32;95.45
64243;BME280;50573;51.512;5.386;2023-02-02T07:44:16;102050.72;;;8.20;96.58
64243;BME280;50573;51.512;5.386;2023-02-02T07:54:21;102051.50;;;8.17;97.29
64243;BME280;50573;51.512;5.386;2023-02-02T08:04:24;102064.69;;;8.22;97.06
64243;BME280;50573;51.512;5.386;2023-02-02T08:14:28;102090.31;;;8.32;96.47
64243;BME280;50573;51.512;5.386;2023-02-02T08:24:31;102084.91;;;8.35;96.38
64243;BME280;50573;51.512;5.386;2023-02-02T08:34:36;102100.81;;;8.40;95.54
64243;BME280;50573;51.512;5.386;2023-02-02T08:44:39;102102.00;;;8.50;95.13
64243;BME280;50573;51.512;5.386;2023-02-02T08:55:04;102128.78;;;8.55;94.28
64243;BME280;50573;51.512;5.386;2023-02-02T09:05:07;102161.00;;;8.74;93.54
64243;BME280;50573;51.512;5.386;2023-02-02T09:15:12;102171.84;;;8.71;92.96
64243;BME280;50573;51.512;5.386;2023-02-02T09:25:15;102178.50;;;8.98;91.72
64243;BME280;50573;51.512;5.386;2023-02-02T09:35:19;102191.31;;;9.15;90.15
64243;BME280;50573;51.512;5.386;2023-02-02T09:45:24;102211.50;;;9.21;89.87
64243;BME280;50573;51.512;5.386;2023-02-02T09:55:35;102215.41;;;9.37;87.94
64243;BME280;50573;51.512;5.386;2023-02-02T10:05:44;102238.34;;;9.43;87.93
64243;BME280;50573;51.512;5.386;2023-02-02T10:15:51;102219.28;;;9.33;88.78
64243;BME280;50573;51.512;5.386;2023-02-02T10:25:59;102223.94;;;9.36;89.73
64243;BME280;50573;51.512;5.386;2023-02-02T10:36:09;102225.91;;;9.42;89.79
64243;BME280;50573;51.512;5.386;2023-02-02T10:46:16;102220.44;;;9.70;87.37
64243;BME280;50573;51.512;5.386;2023-02-02T10:56:30;102260.47;;;9.66;87.36
64243;BME280;50573;51.512;5.386;2023-02-02T11:06:35;102258.13;;;9.79;87.05
64243;BME280;50573;51.512;5.386;2023-02-02T11:17:02;102247.63;;;9.81;87.51
64243;BME280;50573;51.512;5.386;2023-02-02T11:27:06;102242.19;;;9.77;87.09
64243;BME280;50573;51.512;5.386;2023-02-02T11:37:19;102240.28;;;9.64;86.52
64243;BME280;50573;51.512;5.386;2023-02-02T11:47:23;102238.72;;;9.59;86.77
64243;BME280;50573;51.512;5.386;2023-02-02T11:57:28;102234.78;;;9.81;86.40
64243;BME280;50573;51.512;5.386;2023-02-02T12:07:32;102228.56;;;9.88;86.18
64243;BME280;50573;51.512;5.386;2023-02-02T12:17:37;102233.56;;;10.07;85.98
64243;BME280;50573;51.512;5.386;2023-02-02T12:27:43;102226.97;;;10.05;85.10
64243;BME280;50573;51.512;5.386;2023-02-02T12:37:55;102218.31;;;10.34;84.13
64243;BME280;50573;51.512;5.386;2023-02-02T12:48:08;102202.34;;;10.40;83.62
64243;BME280;50573;51.512;5.386;2023-02-02T12:58:16;102222.91;;;10.51;83.75
64243;BME280;50573;51.512;5.386;2023-02-02T13:08:22;102204.34;;;10.32;84.23
64243;BME280;50573;51.512;5.386;2023-02-02T13:18:30;102211.00;;;10.17;85.94
64243;BME280;50573;51.512;5.386;2023-02-02T13:28:37;102213.75;;;10.03;86.91
64243;BME280;50573;51.512;5.386;2023-02-02T13:38:43;102210.69;;;9.87;88.04
64243;BME280;50573;51.512;5.386;2023-02-02T13:48:50;102212.63;;;9.94;89.28
64243;BME280;50573;51.512;5.386;2023-02-02T13:58:59;102206.78;;;9.84;88.23
64243;BME280;50573;51.512;5.386;2023-02-02T14:09:14;102207.91;;;10.12;87.38
64243;BME280;50573;51.512;5.386;2023-02-02T14:29:59;102231.34;;;9.32;97.69
64243;BME280;50573;51.512;5.386;2023-02-02T14:40:10;102236.41;;;9.16;100.00
64243;BME280;50573;51.512;5.386;2023-02-02T14:50:26;102250.72;;;8.99;100.00
64243;BME280;50573;51.512;5.386;2023-02-02T15:00:29;102253.34;;;8.71;100.00
64243;BME280;50573;51.512;5.386;2023-02-02T15:21:09;102251.00;;;8.66;100.00
64243;BME280;50573;51.512;5.386;2023-02-02T15:31:17;102252.97;;;8.65;100.00
64243;BME280;50573;51.512;5.386;2023-02-02T15:41:25;102266.50;;;8.58;100.00
64243;BME280;50573;51.512;5.386;2023-02-02T15:51:29;102271.91;;;8.48;100.00
64243;BME280;50573;51.512;5.386;2023-02-02T16:01:38;102287.41;;;8.43;100.00
64243;BME280;50573;51.512;5.386;2023-02-02T16:11:46;102288.16;;;8.40;100.00
64243;BME280;50573;51.512;5.386;2023-02-02T16:21:53;102299.81;;;8.41;100.00
64243;BME280;50573;51.512;5.386;2023-02-02T16:31:57;102302.13;;;8.39;100.00
64243;BME280;50573;51.512;5.386;2023-02-02T16:42:08;102309.94;;;8.48;100.00
64243;BME280;50573;51.512;5.386;2023-02-02T16:52:12;102327.00;;;8.48;100.00
64243;BME280;50573;51.512;5.386;2023-02-02T17:02:23;102350.31;;;8.53;100.00
64243;BME280;50573;51.512;5.386;2023-02-02T17:12:27;102335.97;;;8.56;100.00
64243;BME280;50573;51.512;5.386;2023-02-02T17:22:36;102352.69;;;8.65;100.00
64243;BME280;50573;51.512;5.386;2023-02-02T17:32:40;102355.47;;;8.75;100.00
64243;BME280;50573;51.512;5.386;2023-02-02T17:42:46;102362.50;;;8.83;100.00
64243;BME280;50573;51.512;5.386;2023-02-02T17:52:49;102363.66;;;8.86;100.00
64243;BME280;50573;51.512;5.386;2023-02-02T18:02:56;102357.88;;;8.98;100.00
64243;BME280;50573;51.512;5.386;2023-02-02T18:12:59;102365.28;;;9.08;100.00
64243;BME280;50573;51.512;5.386;2023-02-02T18:23:03;102349.38;;;9.13;100.00
64243;BME280;50573;51.512;5.386;2023-02-02T18:33:06;102329.97;;;9.18;100.00
64243;BME280;50573;51.512;5.386;2023-02-02T18:43:11;102340.50;;;9.27;100.00
64243;BME280;50573;51.512;5.386;2023-02-02T18:53:14;102333.50;;;9.19;100.00
64243;BME280;50573;51.512;5.386;2023-02-02T19:03:19;102333.47;;;9.26;100.00
64243;BME280;50573;51.512;5.386;2023-02-02T19:13:22;102343.97;;;9.17;100.00
64243;BME280;50573;51.512;5.386;2023-02-02T19:23:28;102343.56;;;9.15;100.00
64243;BME280;50573;51.512;5.386;2023-02-02T19:33:37;102337.34;;;9.14;100.00
64243;BME280;50573;51.512;5.386;2023-02-02T19:43:42;102310.50;;;8.99;100.00
64243;BME280;50573;51.512;5.386;2023-02-02T19:53:48;102324.09;;;8.99;100.00
64243;BME280;50573;51.512;5.386;2023-02-02T20:03:52;102332.31;;;9.09;100.00
64243;BME280;50573;51.512;5.386;2023-02-02T20:13:55;102331.88;;;9.04;100.00
64243;BME280;50573;51.512;5.386;2023-02-02T20:24:00;102338.88;;;9.05;100.00
64243;BME280;50573;51.512;5.386;2023-02-02T20:34:09;102336.53;;;9.03;100.00
64243;BME280;50573;51.512;5.386;2023-02-02T20:44:21;102345.06;;;8.98;100.00
64243;BME280;50573;51.512;5.386;2023-02-02T20:54:24;102349.72;;;8.94;100.00
64243;BME280;50573;51.512;5.386;2023-02-02T21:04:29;102367.16;;;8.93;100.00
64243;BME280;50573;51.512;5.386;2023-02-02T21:14:31;102353.59;;;8.97;100.00
64243;BME280;50573;51.512;5.386;2023-02-02T21:24:36;102357.53;;;9.03;100.00
64243;BME280;50573;51.512;5.386;2023-02-02T21:34:39;102363.78;;;9.14;100.00
64243;BME280;50573;51.512;5.386;2023-02-02T21:44:43;102357.56;;;9.17;99.85
64243;BME280;50573;51.512;5.386;2023-02-02T21:54:48;102349.00;;;9.15;99.81
64243;BME280;50573;51.512;5.386;2023-02-02T22:04:52;102350.19;;;9.24;98.90
64243;BME280;50573;51.512;5.386;2023-02-02T22:14:58;102359.53;;;9.27;98.81
64243;BME280;50573;51.512;5.386;2023-02-02T22:25:05;102383.19;;;9.23;99.14
64243;BME280;50573;51.512;5.386;2023-02-02T22:35:19;102350.56;;;9.23;99.13
64243;BME280;50573;51.512;5.386;2023-02-02T22:45:23;102346.69;;;9.17;99.22
64243;BME280;50573;51.512;5.386;2023-02-02T22:55:27;102356.41;;;9.25;99.18
64243;BME280;50573;51.512;5.386;2023-02-02T23:05:31;102361.03;;;9.21;99.27
64243;BME280;50573;51.512;5.386;2023-02-02T23:15:34;102345.16;;;9.26;99.62
64243;BME280;50573;51.512;5.386;2023-02-02T23:25:39;102326.09;;;9.23;99.18
64243;BME280;50573;51.512;5.386;2023-02-02T23:35:41;102293.09;;;9.28;99.52
64243;BME280;50573;51.512;5.386;2023-02-02T23:45:45;102281.84;;;9.22;99.38
64243;BME280;50573;51.512;5.386;2023-02-02T23:55:49;102293.47;;;9.23;99.33
